Time;durP1;ratioP1;P1;durP2;ratioP2;P2;SDS_P1;SDS_P2;PMS_P1;PMS_P2;Temp;Humidity;BMP_temperature;BMP_pressure;BME280_temperature;BME280_humidity;BME280_pressure;Samples;Min_cycle;Max_cycle;Signal;HPM_P1;HPM_P2
2021/12/03 00:00:24;;;;;;;1.00;0.43;;;5.10;38.70;;;;;;5037151;28;20172;-48
2021/12/03 00:02:52;;;;;;;2.65;0.63;;;5.10;38.70;;;;;;5036998;28;20264;-48
2021/12/03 00:05:19;;;;;;;1.00;0.30;;;5.10;38.80;;;;;;5003530;28;20198;-48
2021/12/03 00:07:47;;;;;;;1.10;0.40;;;5.10;38.80;;;;;;5019653;28;20662;-48
2021/12/03 00:10:21;;;;;;;1.00;0.30;;;5.00;38.60;;;;;;5036967;28;20169;-47
2021/12/03 00:12:49;;;;;;;1.00;0.30;;;5.00;38.50;;;;;;5003726;28;20559;-48
2021/12/03 00:15:17;;;;;;;2.45;0.52;;;5.00;38.60;;;;;;5036816;28;20188;-48
2021/12/03 00:17:45;;;;;;;1.27;0.68;;;5.00;38.50;;;;;;5037012;28;20257;-48
2021/12/03 00:20:15;;;;;;;1.92;0.95;;;4.90;38.70;;;;;;5003239;28;20170;-48
2021/12/03 00:22:48;;;;;;;1.10;0.52;;;4.90;38.60;;;;;;5019385;28;20174;-48
2021/12/03 00:25:16;;;;;;;1.45;0.50;;;4.90;38.60;;;;;;5020135;28;20200;-48
2021/12/03 00:27:43;;;;;;;1.70;1.20;;;4.80;38.50;;;;;;5019527;28;20190;-48
2021/12/03 00:30:13;;;;;;;1.00;0.40;;;4.80;38.50;;;;;;5036459;28;20621;-50
2021/12/03 00:32:42;;;;;;;1.45;0.80;;;4.70;38.50;;;;;;5003354;28;20189;-48
2021/12/03 00:35:10;;;;;;;2.00;0.65;;;4.70;38.70;;;;;;5036360;28;20170;-49
2021/12/03 00:37:39;;;;;;;1.00;0.40;;;4.70;38.80;;;;;;5019445;28;20173;-48
2021/12/03 00:40:09;;;;;;;0.98;0.30;;;4.70;39.00;;;;;;5027876;28;20209;-48
2021/12/03 00:42:38;;;;;;;1.00;0.30;;;4.70;39.00;;;;;;5039276;28;20268;-48
2021/12/03 00:45:07;;;;;;;4.82;1.00;;;4.70;39.00;;;;;;5055336;28;20205;-48
2021/12/03 00:47:35;;;;;;;2.53;0.77;;;4.70;39.10;;;;;;5055277;28;20698;-48
2021/12/03 00:50:05;;;;;;;1.20;0.43;;;4.70;39.00;;;;;;5056071;28;20613;-48
2021/12/03 00:52:34;;;;;;;1.00;0.30;;;4.70;39.20;;;;;;5056022;28;20660;-48
2021/12/03 00:55:01;;;;;;;1.42;1.15;;;4.70;39.20;;;;;;5065848;28;20511;-48
2021/12/03 00:57:29;;;;;;;1.00;0.30;;;4.70;39.20;;;;;;5075913;28;20617;-49
2021/12/03 00:59:56;;;;;;;2.75;0.68;;;4.70;39.20;;;;;;5075874;28;20187;-48
2021/12/03 01:02:24;;;;;;;1.10;0.40;;;4.70;39.20;;;;;;5075768;28;20168;-48
2021/12/03 01:04:53;;;;;;;2.75;0.85;;;4.80;39.30;;;;;;5075718;28;20185;-48
2021/12/03 01:07:20;;;;;;;1.30;0.73;;;4.80;39.50;;;;;;5075692;28;20175;-48
2021/12/03 01:09:47;;;;;;;1.80;0.88;;;4.90;39.50;;;;;;5075745;28;20163;-48
2021/12/03 01:12:15;;;;;;;4.95;0.90;;;4.80;39.30;;;;;;5075597;28;20196;-48
2021/12/03 01:14:44;;;;;;;2.08;1.55;;;4.80;39.40;;;;;;5074624;28;20629;-49
2021/12/03 01:17:12;;;;;;;1.00;0.40;;;4.80;39.20;;;;;;5058035;28;20177;-48
2021/12/03 01:19:39;;;;;;;2.28;0.80;;;4.70;39.40;;;;;;5075608;28;20643;-48
2021/12/03 01:22:07;;;;;;;2.20;1.80;;;4.70;39.30;;;;;;5074586;28;20181;-48
2021/12/03 01:24:34;;;;;;;1.95;1.08;;;4.70;39.60;;;;;;5075294;28;20176;-48
2021/12/03 01:27:03;;;;;;;3.45;1.30;;;4.70;39.50;;;;;;5074473;28;20206;-49
2021/12/03 01:29:30;;;;;;;1.65;0.85;;;4.70;39.40;;;;;;5074295;28;20251;-48
2021/12/03 01:31:58;;;;;;;2.22;0.85;;;4.60;39.40;;;;;;5074406;28;20253;-50
2021/12/03 01:34:25;;;;;;;1.75;0.70;;;4.60;39.30;;;;;;5075214;28;20226;-48
2021/12/03 01:36:53;;;;;;;2.67;1.73;;;4.60;39.20;;;;;;5075157;28;20168;-48
2021/12/03 01:39:20;;;;;;;2.70;1.05;;;4.60;39.20;;;;;;5075078;28;20159;-48
2021/12/03 01:41:48;;;;;;;1.50;0.77;;;4.60;39.40;;;;;;5055021;28;20646;-49
2021/12/03 01:44:16;;;;;;;1.42;0.70;;;4.60;39.20;;;;;;5055086;28;20168;-49
2021/12/03 01:46:44;;;;;;;1.40;0.70;;;4.60;39.20;;;;;;5054187;28;20193;-48
2021/12/03 01:49:14;;;;;;;1.20;0.70;;;4.50;39.30;;;;;;5055077;28;20170;-48
2021/12/03 01:51:43;;;;;;;1.65;1.08;;;4.50;39.30;;;;;;5037533;28;20166;-48
2021/12/03 01:54:10;;;;;;;1.25;0.57;;;4.50;39.30;;;;;;5054011;28;20614;-48
2021/12/03 01:56:39;;;;;;;2.28;0.50;;;4.50;39.60;;;;;;5054794;28;20270;-48
2021/12/03 01:59:07;;;;;;;2.35;1.63;;;4.40;39.40;;;;;;5053958;28;20180;-48
2021/12/03 02:01:35;;;;;;;2.00;0.50;;;4.40;39.40;;;;;;5053969;28;20252;-49
2021/12/03 02:04:04;;;;;;;2.15;1.38;;;4.40;39.30;;;;;;5053911;28;20233;-48
2021/12/03 02:06:45;;;;;;;1.70;1.00;;;5.30;39.60;;;;;;5016844;28;20216;-48
2021/12/03 02:09:13;;;;;;;1.50;1.33;;;4.30;39.20;;;;;;5017397;28;20169;-48
2021/12/03 02:11:40;;;;;;;2.95;0.93;;;4.30;39.20;;;;;;5033921;28;20168;-48
2021/12/03 02:14:07;;;;;;;3.15;1.05;;;4.30;39.20;;;;;;5034026;28;20180;-48
2021/12/03 02:16:37;;;;;;;1.63;0.70;;;4.20;39.40;;;;;;5034763;28;20180;-48
2021/12/03 02:19:05;;;;;;;2.65;0.88;;;4.20;39.60;;;;;;5017688;28;20239;-48
2021/12/03 02:21:33;;;;;;;3.92;1.27;;;4.20;39.90;;;;;;5033803;28;20162;-48
2021/12/03 02:24:01;;;;;;;1.65;0.93;;;4.20;39.70;;;;;;5017492;28;20253;-48
2021/12/03 02:26:28;;;;;;;2.10;1.15;;;4.10;40.00;;;;;;5034596;28;20551;-49
2021/12/03 02:28:56;;;;;;;1.45;0.68;;;4.10;40.30;;;;;;5033885;28;20606;-48
2021/12/03 02:31:25;;;;;;;1.10;0.57;;;4.10;40.10;;;;;;5033761;28;20224;-48
2021/12/03 02:33:54;;;;;;;3.05;2.05;;;4.10;40.20;;;;;;5017611;28;20200;-48
2021/12/03 02:36:21;;;;;;;10.07;1.45;;;4.20;40.30;;;;;;5017320;28;20166;-48
2021/12/03 02:38:49;;;;;;;4.30;0.93;;;4.10;40.10;;;;;;5034490;28;20166;-48
2021/12/03 02:41:16;;;;;;;1.85;1.05;;;4.10;40.70;;;;;;5049944;28;20233;-48
2021/12/03 02:43:44;;;;;;;1.17;0.68;;;4.10;39.80;;;;;;5054479;28;20165;-48
2021/12/03 02:46:11;;;;;;;1.20;0.80;;;4.20;39.80;;;;;;5053514;28;20229;-47
2021/12/03 02:48:39;;;;;;;2.85;0.55;;;4.20;39.70;;;;;;5054256;28;20169;-48
2021/12/03 02:51:08;;;;;;;1.48;1.00;;;4.20;39.50;;;;;;5053493;28;20169;-48
2021/12/03 02:53:38;;;;;;;3.15;0.60;;;4.20;39.50;;;;;;5069899;28;20521;-48
2021/12/03 02:56:08;;;;;;;1.35;0.63;;;4.20;39.60;;;;;;5074353;28;20251;-48
2021/12/03 02:58:36;;;;;;;3.10;1.55;;;4.10;39.50;;;;;;5074336;28;20255;-48
2021/12/03 03:01:07;;;;;;;1.25;0.63;;;4.00;39.50;;;;;;5073376;28;20501;-48
2021/12/03 03:03:35;;;;;;;1.40;0.50;;;4.00;39.70;;;;;;5073356;28;20173;-48
2021/12/03 03:06:05;;;;;;;1.48;0.88;;;3.90;40.00;;;;;;5074178;28;20518;-49
2021/12/03 03:08:33;;;;;;;2.95;1.27;;;3.80;39.80;;;;;;5073473;28;20168;-48
2021/12/03 03:11:03;;;;;;;1.42;0.95;;;3.80;39.80;;;;;;5074259;28;20609;-48
2021/12/03 03:13:31;;;;;;;1.10;0.68;;;3.80;39.70;;;;;;5059477;28;20188;-49
2021/12/03 03:15:59;;;;;;;1.08;0.30;;;3.80;39.60;;;;;;5053298;28;20216;-48
2021/12/03 03:18:28;;;;;;;1.23;0.75;;;3.70;39.60;;;;;;5056086;28;20244;-49
2021/12/03 03:20:59;;;;;;;1.05;0.50;;;3.70;39.60;;;;;;5056896;28;20162;-49
2021/12/03 03:23:26;;;;;;;5.38;1.20;;;3.70;39.60;;;;;;5057717;28;20230;-48
2021/12/03 03:25:55;;;;;;;1.00;0.30;;;3.60;39.60;;;;;;5057597;28;20191;-47
2021/12/03 03:28:23;;;;;;;9.05;0.95;;;3.60;39.50;;;;;;5057647;28;20168;-48
2021/12/03 03:30:53;;;;;;;1.00;0.35;;;3.50;39.50;;;;;;5040397;28;20178;-48
2021/12/03 03:33:22;;;;;;;1.00;0.35;;;3.50;39.50;;;;;;5057664;28;20172;-47
2021/12/03 03:35:50;;;;;;;1.70;1.02;;;3.40;39.40;;;;;;5057459;28;20664;-48
2021/12/03 03:38:18;;;;;;;1.92;1.15;;;3.40;39.50;;;;;;5057362;28;20187;-48
2021/12/03 03:40:47;;;;;;;2.30;1.08;;;3.40;39.50;;;;;;5067001;28;20606;-48
2021/12/03 03:43:15;;;;;;;2.30;1.25;;;3.30;39.70;;;;;;5077259;28;20206;-48
2021/12/03 03:45:43;;;;;;;1.33;0.77;;;3.30;39.80;;;;;;5076429;28;20191;-48
2021/12/03 03:48:12;;;;;;;1.38;0.95;;;3.30;39.70;;;;;;5076370;28;20163;-48
2021/12/03 03:50:40;;;;;;;1.83;0.82;;;3.20;39.70;;;;;;5076360;28;20173;-48
2021/12/03 03:53:08;;;;;;;1.40;1.13;;;3.20;39.90;;;;;;5077209;28;20174;-48
2021/12/03 03:55:35;;;;;;;1.05;0.55;;;3.10;40.20;;;;;;5076224;28;20506;-48
2021/12/03 03:58:04;;;;;;;2.00;0.60;;;3.10;40.10;;;;;;5077181;28;20260;-48
2021/12/03 04:00:37;;;;;;;1.17;0.57;;;3.10;39.90;;;;;;5077100;28;20192;-48
2021/12/03 04:03:05;;;;;;;3.63;3.33;;;3.00;39.90;;;;;;5077003;28;20183;-48
2021/12/03 04:05:33;;;;;;;4.85;1.15;;;3.00;39.90;;;;;;5076875;28;20520;-48
2021/12/03 04:08:00;;;;;;;1.52;0.60;;;3.00;39.90;;;;;;5059579;28;20167;-48
2021/12/03 04:10:28;;;;;;;1.55;1.45;;;2.90;39.90;;;;;;5076856;28;20506;-48
2021/12/03 04:12:56;;;;;;;2.25;1.92;;;2.90;40.10;;;;;;5076759;28;20246;-48
2021/12/03 04:15:23;;;;;;;1.33;0.80;;;2.80;39.90;;;;;;5077108;28;20245;-48
2021/12/03 04:17:51;;;;;;;2.10;1.20;;;2.80;39.90;;;;;;5075831;28;20184;-48
2021/12/03 04:20:20;;;;;;;3.58;2.20;;;2.80;40.10;;;;;;5059360;28;20680;-48
2021/12/03 04:22:48;;;;;;;3.05;1.83;;;2.80;40.40;;;;;;5075723;28;20573;-48
2021/12/03 04:25:19;;;;;;;1.55;1.10;;;2.80;41.00;;;;;;5059263;28;20191;-48
2021/12/03 04:27:47;;;;;;;2.65;1.55;;;2.90;41.00;;;;;;5076621;28;20163;-49
2021/12/03 04:30:27;;;;;;;1.75;0.98;;;3.00;40.90;;;;;;5075597;28;20157;-48
2021/12/03 04:32:56;;;;;;;2.30;1.95;;;3.00;41.20;;;;;;5060359;28;20171;-48
2021/12/03 04:35:26;;;;;;;1.38;0.70;;;3.10;41.30;;;;;;5059133;28;20168;-49
2021/12/03 04:37:54;;;;;;;2.10;0.85;;;3.20;41.00;;;;;;5076309;28;20202;-48
2021/12/03 04:40:22;;;;;;;4.18;2.38;;;3.30;41.00;;;;;;5068155;28;20226;-48
2021/12/03 04:42:50;;;;;;;4.95;1.13;;;3.30;41.50;;;;;;5038804;28;20241;-48
2021/12/03 04:45:20;;;;;;;1.27;0.30;;;3.30;41.20;;;;;;5038766;28;20193;-48
2021/12/03 04:47:49;;;;;;;1.20;0.95;;;3.30;41.50;;;;;;5038707;28;20601;-49
2021/12/03 04:50:18;;;;;;;1.30;1.08;;;3.30;41.30;;;;;;5038645;28;20690;-49
2021/12/03 04:52:46;;;;;;;3.72;1.85;;;3.40;41.00;;;;;;5038610;28;20601;-48
2021/12/03 04:55:14;;;;;;;1.10;0.40;;;3.40;41.20;;;;;;5038618;28;20168;-48
2021/12/03 04:57:42;;;;;;;1.30;0.73;;;3.40;41.30;;;;;;5055866;28;20176;-47
2021/12/03 05:00:15;;;;;;;1.10;0.45;;;3.40;41.10;;;;;;5038473;28;20168;-48
2021/12/03 05:02:42;;;;;;;2.15;0.93;;;3.50;41.00;;;;;;5038519;28;20541;-49
2021/12/03 05:05:10;;;;;;;5.72;1.23;;;3.50;40.90;;;;;;5055657;28;20200;-48
2021/12/03 05:10:07;;;;;;;3.42;1.15;;;3.50;41.30;;;;;;5055672;28;20173;-48
2021/12/03 05:12:35;;;;;;;2.95;1.63;;;3.50;41.20;;;;;;5038099;28;20249;-48
2021/12/03 05:15:04;;;;;;;2.92;1.70;;;3.50;41.00;;;;;;5055526;28;20165;-48
2021/12/03 05:17:32;;;;;;;3.70;2.40;;;3.50;41.50;;;;;;5055488;28;20172;-48
2021/12/03 05:19:59;;;;;;;0.93;0.30;;;3.50;41.30;;;;;;5055468;28;20304;-48
2021/12/03 05:22:27;;;;;;;9.02;1.63;;;3.40;41.70;;;;;;5055398;28;20188;-48
2021/12/03 05:24:55;;;;;;;1.40;0.52;;;3.40;41.20;;;;;;5037712;28;20522;-48
2021/12/03 05:27:23;;;;;;;1.20;0.63;;;3.40;41.00;;;;;;5055359;28;20170;-48
2021/12/03 05:29:50;;;;;;;1.98;1.27;;;3.50;41.30;;;;;;5055266;28;20176;-48
2021/12/03 05:32:19;;;;;;;2.10;1.20;;;3.40;40.90;;;;;;5055188;28;20164;-49
2021/12/03 05:34:47;;;;;;;1.52;0.60;;;3.50;41.30;;;;;;5021623;28;20189;-49
2021/12/03 05:37:14;;;;;;;1.95;1.30;;;3.40;41.20;;;;;;5055136;28;20162;-48
2021/12/03 05:39:42;;;;;;;1.33;0.77;;;3.40;41.10;;;;;;5054851;28;20156;-49
2021/12/03 05:42:10;;;;;;;4.65;0.80;;;3.40;41.00;;;;;;5037641;28;20202;-48
2021/12/03 05:44:37;;;;;;;1.20;0.57;;;3.40;41.00;;;;;;5021379;28;20196;-49
2021/12/03 05:47:05;;;;;;;2.05;0.90;;;3.40;41.50;;;;;;5021252;28;20157;-48
2021/12/03 05:49:33;;;;;;;2.53;0.95;;;3.40;41.60;;;;;;5036526;28;20174;-50
2021/12/03 05:52:01;;;;;;;1.20;0.80;;;3.30;42.30;;;;;;5017831;28;20169;-50
2021/12/03 05:54:29;;;;;;;3.63;1.35;;;3.40;41.90;;;;;;5051545;28;20180;-50
2021/12/03 05:56:56;;;;;;;2.65;1.75;;;3.50;41.50;;;;;;5054817;28;20581;-49
2021/12/03 05:59:27;;;;;;;1.25;0.63;;;3.50;41.70;;;;;;5021211;28;20251;-49
2021/12/03 06:01:55;;;;;;;3.03;1.20;;;3.50;41.60;;;;;;5037427;28;20161;-48
2021/12/03 06:04:23;;;;;;;1.40;0.43;;;3.60;41.10;;;;;;5054757;28;20180;-50
2021/12/03 06:06:50;;;;;;;1.67;0.85;;;3.60;41.30;;;;;;5054475;28;20195;-49
2021/12/03 06:09:17;;;;;;;1.95;0.82;;;3.50;42.00;;;;;;5020789;28;20206;-49
2021/12/03 06:11:45;;;;;;;4.22;1.20;;;3.50;42.00;;;;;;5054700;28;20168;-48
2021/12/03 06:14:12;;;;;;;1.00;0.38;;;3.60;41.90;;;;;;5054660;28;20173;-48
2021/12/03 06:16:40;;;;;;;2.60;0.98;;;3.60;41.60;;;;;;5037136;28;20250;-49
2021/12/03 06:19:07;;;;;;;2.63;0.73;;;3.70;41.30;;;;;;5054543;28;20627;-49
2021/12/03 06:21:34;;;;;;;1.25;1.02;;;3.70;41.20;;;;;;5020561;28;20569;-47
2021/12/03 06:24:02;;;;;;;7.95;2.28;;;3.70;41.00;;;;;;5054526;28;20223;-48
2021/12/03 06:26:29;;;;;;;4.00;1.35;;;3.70;40.90;;;;;;5054460;28;20203;-48
2021/12/03 06:28:57;;;;;;;1.05;0.45;;;3.60;41.80;;;;;;5054491;28;20165;-48
2021/12/03 06:31:25;;;;;;;2.20;1.02;;;3.60;41.80;;;;;;5054535;28;20172;-48
2021/12/03 06:33:52;;;;;;;1.20;0.63;;;3.70;40.90;;;;;;5036873;28;20176;-49
2021/12/03 06:36:20;;;;;;;1.70;0.93;;;3.70;40.80;;;;;;5037067;28;20578;-48
2021/12/03 06:38:47;;;;;;;2.75;1.33;;;3.80;40.60;;;;;;5037024;28;20169;-49
2021/12/03 06:41:15;;;;;;;3.03;1.45;;;3.80;40.50;;;;;;5047140;28;20205;-49
2021/12/03 06:43:43;;;;;;;1.00;0.40;;;3.70;40.50;;;;;;5074333;28;20160;-48
2021/12/03 06:46:10;;;;;;;1.48;0.65;;;3.80;41.10;;;;;;5074282;28;20334;-48
2021/12/03 06:48:38;;;;;;;1.52;0.75;;;3.70;40.50;;;;;;5073592;28;20239;-48
2021/12/03 06:51:06;;;;;;;1.20;0.40;;;3.70;40.50;;;;;;5074441;28;20163;-48
2021/12/03 06:53:44;;;;;;;1.00;0.30;;;3.70;40.40;;;;;;5076968;28;20169;-49
2021/12/03 06:56:20;;;;;;;3.33;1.88;;;3.60;40.40;;;;;;5077281;28;20152;-48
2021/12/03 06:58:48;;;;;;;1.75;0.93;;;3.60;40.60;;;;;;5077212;28;20183;-49
2021/12/03 07:01:16;;;;;;;2.10;0.65;;;3.60;40.70;;;;;;5077252;28;20161;-48
2021/12/03 07:03:44;;;;;;;1.30;0.73;;;3.60;40.50;;;;;;5077152;28;20167;-49
2021/12/03 07:06:12;;;;;;;1.00;0.40;;;3.50;40.70;;;;;;5077028;28;20188;-49
2021/12/03 07:08:40;;;;;;;1.10;0.65;;;3.50;40.90;;;;;;5060674;28;20165;-48
2021/12/03 07:11:07;;;;;;;1.25;0.65;;;3.40;40.70;;;;;;5077046;28;20244;-48
2021/12/03 07:13:35;;;;;;;0.90;0.30;;;3.50;41.20;;;;;;5077221;28;20165;-49
2021/12/03 07:16:05;;;;;;;1.33;0.73;;;3.50;40.80;;;;;;5073633;28;20245;-48
2021/12/03 07:18:32;;;;;;;2.88;0.50;;;3.60;40.50;;;;;;5056835;28;20185;-49
2021/12/03 07:21:00;;;;;;;1.38;0.73;;;3.80;40.10;;;;;;5056713;28;20227;-48
2021/12/03 07:23:27;;;;;;;5.25;1.30;;;3.80;39.90;;;;;;5057673;28;20238;-49
2021/12/03 07:25:54;;;;;;;1.10;0.65;;;3.90;39.80;;;;;;5057733;28;20655;-48
2021/12/03 07:28:22;;;;;;;1.33;0.70;;;3.90;39.70;;;;;;5057568;28;20668;-48
2021/12/03 07:30:49;;;;;;;3.95;0.63;;;4.00;39.50;;;;;;5057524;28;20161;-49
2021/12/03 07:33:18;;;;;;;1.40;0.70;;;4.10;39.40;;;;;;5057413;28;20169;-50
2021/12/03 07:35:46;;;;;;;1.00;0.50;;;4.40;39.00;;;;;;5057379;28;20285;-48
2021/12/03 07:38:17;;;;;;;2.05;0.50;;;4.50;39.00;;;;;;5057400;28;20222;-48
2021/12/03 07:40:46;;;;;;;3.83;1.98;;;4.60;38.50;;;;;;5056343;28;20527;-48
2021/12/03 07:43:16;;;;;;;2.10;1.17;;;4.70;38.40;;;;;;5057240;28;20201;-48
2021/12/03 07:45:45;;;;;;;3.10;0.85;;;4.70;38.40;;;;;;5039968;28;20254;-48
2021/12/03 07:48:12;;;;;;;9.57;1.58;;;4.80;38.30;;;;;;5057180;28;20166;-48
2021/12/03 07:50:41;;;;;;;1.52;0.47;;;4.90;38.20;;;;;;5056306;28;20244;-48
2021/12/03 07:53:17;;;;;;;1.10;0.50;;;4.90;37.70;;;;;;5056138;28;20173;-48
2021/12/03 07:55:46;;;;;;;2.15;1.95;;;5.00;37.70;;;;;;5040669;28;20192;-48
2021/12/03 07:58:13;;;;;;;1.70;0.73;;;5.10;37.70;;;;;;5056086;28;20174;-48
2021/12/03 08:00:43;;;;;;;2.33;1.15;;;5.10;37.60;;;;;;5039728;28;20208;-49
2021/12/03 08:03:11;;;;;;;2.55;1.25;;;5.30;37.50;;;;;;5055290;28;20188;-49
2021/12/03 08:05:38;;;;;;;1.30;0.57;;;5.40;36.80;;;;;;5055673;28;20192;-49
2021/12/03 08:08:07;;;;;;;2.10;0.73;;;5.40;36.20;;;;;;5056810;28;20480;-48
2021/12/03 08:10:35;;;;;;;1.30;0.70;;;5.50;35.80;;;;;;5056776;28;20172;-49
2021/12/03 08:13:03;;;;;;;1.20;0.60;;;5.50;36.10;;;;;;5056795;28;20549;-49
2021/12/03 08:15:31;;;;;;;1.10;0.63;;;5.50;35.50;;;;;;5055871;28;20169;-49
2021/12/03 08:18:01;;;;;;;1.10;0.60;;;5.50;35.00;;;;;;5055789;28;20180;-48
2021/12/03 08:20:33;;;;;;;2.35;0.68;;;5.50;34.60;;;;;;5056639;28;20227;-48
2021/12/03 08:23:01;;;;;;;1.13;0.65;;;5.50;34.40;;;;;;5073939;28;20184;-48
2021/12/03 08:25:30;;;;;;;1.00;0.30;;;5.80;35.50;;;;;;5076399;28;20188;-49
2021/12/03 08:27:58;;;;;;;1.10;0.50;;;6.00;35.30;;;;;;5075504;28;20510;-48
2021/12/03 08:30:31;;;;;;;1.23;0.80;;;6.40;35.20;;;;;;5076589;28;20157;-48
2021/12/03 08:32:59;;;;;;;1.40;0.80;;;6.90;35.30;;;;;;5076591;28;20160;-48
2021/12/03 08:35:27;;;;;;;1.13;0.45;;;7.40;34.60;;;;;;5076381;28;20165;-48
2021/12/03 08:37:54;;;;;;;1.17;0.40;;;7.80;34.60;;;;;;5075638;28;20234;-48
2021/12/03 08:40:22;;;;;;;1.35;0.82;;;8.00;34.00;;;;;;5068526;28;20320;-48
2021/12/03 08:42:51;;;;;;;1.38;0.70;;;8.20;33.80;;;;;;5038767;28;20169;-48
2021/12/03 08:45:21;;;;;;;1.92;0.98;;;8.40;33.50;;;;;;5038960;28;20185;-48
2021/12/03 08:47:57;;;;;;;7.00;1.05;;;8.80;33.30;;;;;;5022210;28;20220;-48
2021/12/03 08:50:30;;;;;;;1.48;0.82;;;8.90;31.40;;;;;;5039583;28;20169;-49
2021/12/03 08:53:12;;;;;;;2.50;2.30;;;9.20;31.30;;;;;;5022523;28;20228;-48
2021/12/03 08:55:41;;;;;;;1.20;0.45;;;9.60;31.20;;;;;;5023783;28;20540;-48
2021/12/03 08:58:10;;;;;;;1.25;0.80;;;10.10;29.80;;;;;;5019092;28;20183;-49
2021/12/03 09:00:38;;;;;;;1.20;0.50;;;10.40;29.50;;;;;;5018817;28;20169;-49
2021/12/03 09:03:07;;;;;;;1.60;0.82;;;10.50;29.60;;;;;;5002323;28;20184;-49
2021/12/03 09:05:37;;;;;;;1.20;0.60;;;10.60;29.80;;;;;;5035670;28;20189;-49
2021/12/03 09:08:05;;;;;;;1.30;0.50;;;10.50;29.20;;;;;;5002279;28;20177;-49
2021/12/03 09:10:33;;;;;;;1.65;1.10;;;10.50;28.10;;;;;;5035717;28;20168;-49
2021/12/03 09:13:00;;;;;;;2.47;1.15;;;10.20;28.30;;;;;;5049918;28;20199;-49
2021/12/03 09:15:36;;;;;;;1.23;0.50;;;10.00;29.10;;;;;;5037525;28;20184;-49
2021/12/03 09:18:16;;;;;;;1.45;0.75;;;9.70;28.30;;;;;;5039363;28;20168;-49
2021/12/03 09:23:40;;;;;;;1.30;0.70;;;9.40;29.50;;;;;;5055432;28;20246;-48
2021/12/03 09:26:11;;;;;;;1.55;1.00;;;9.10;28.70;;;;;;5055089;28;20196;-49
2021/12/03 09:28:41;;;;;;;2.83;0.55;;;9.00;28.10;;;;;;5055102;28;20653;-49
2021/12/03 09:31:13;;;;;;;1.20;0.50;;;8.90;27.90;;;;;;5038417;28;20562;-48
2021/12/03 09:33:44;;;;;;;1.20;0.50;;;8.90;29.60;;;;;;5021820;28;20177;-49
2021/12/03 09:36:12;;;;;;;3.38;1.77;;;9.10;28.20;;;;;;5036222;28;20180;-49
2021/12/03 09:38:39;;;;;;;6.35;0.70;;;9.30;27.40;;;;;;5035117;28;20178;-49
2021/12/03 09:41:10;;;;;;;2.40;0.93;;;9.60;27.50;;;;;;5041476;28;20595;-48
2021/12/03 09:43:50;;;;;;;2.22;1.27;;;10.00;26.30;;;;;;5054279;28;20161;-48
2021/12/03 09:46:26;;;;;;;2.00;0.90;;;10.70;26.10;;;;;;5054928;28;20184;-50
2021/12/03 09:51:52;;;;;;;1.10;0.40;;;10.60;25.10;;;;;;5054152;28;20609;-49
2021/12/03 09:54:42;;;;;;;1.30;0.52;;;10.70;26.20;;;;;;5053888;28;20186;-49
2021/12/03 09:57:14;;;;;;;1.48;0.60;;;11.10;24.20;;;;;;5040167;28;20262;-49
2021/12/03 10:11:39;;;;;;;1.60;0.77;;;13.40;21.40;;;;;;5054938;28;20236;-48
2021/12/03 10:14:23;;;;;;;1.63;1.00;;;13.80;20.20;;;;;;5042768;28;20207;-50
2021/12/03 10:25:41;;;;;;;2.17;0.75;;;14.00;18.30;;;;;;5054846;28;20621;-48
2021/12/03 10:28:30;;;;;;;2.33;0.88;;;13.80;18.90;;;;;;5057257;28;20180;-48
2021/12/03 10:31:47;;;;;;;1.75;1.05;;;14.40;18.10;;;;;;5058649;28;20560;-50
2021/12/03 10:36:58;;;;;;;1.70;0.88;;;15.60;17.40;;;;;;5057806;28;20515;-49
2021/12/03 10:39:50;;;;;;;1.20;0.55;;;15.80;16.60;;;;;;5044318;28;20272;-49
2021/12/03 10:42:36;;;;;;;3.40;1.90;;;16.10;16.20;;;;;;5058462;28;20178;-49
2021/12/03 10:45:25;;;;;;;1.58;0.70;;;15.80;15.10;;;;;;5042913;28;20164;-49
2021/12/03 10:50:47;;;;;;;1.17;0.50;;;14.90;15.40;;;;;;5029955;28;20641;-49
2021/12/03 10:53:29;;;;;;;1.10;0.40;;;14.10;15.70;;;;;;5058210;28;20227;-49
2021/12/03 10:56:10;;;;;;;1.50;0.82;;;13.40;16.50;;;;;;5028353;28;20164;-48
2021/12/03 10:59:05;;;;;;;1.33;0.60;;;13.10;17.70;;;;;;5058168;28;20557;-49
2021/12/03 11:29:30;;;;;;;1.10;0.45;;;10.50;21.40;;;;;;5043045;28;20167;-50
2021/12/03 11:35:00;;;;;;;2.25;1.15;;;10.90;21.20;;;;;;5043833;28;20172;-48
2021/12/03 11:55:00;;;;;;;2.03;0.75;;;12.60;20.50;;;;;;5001806;28;20214;-48
2021/12/03 13:14:36;;;;;;;1.50;1.20;;;12.00;21.80;;;;;;5068845;28;20272;-48
2021/12/03 13:17:30;;;;;;;2.70;1.50;;;12.10;21.60;;;;;;5042230;28;20170;-49
2021/12/03 14:15:35;;;;;;;1.48;0.70;;;8.40;27.60;;;;;;5054461;28;20167;-48
2021/12/03 14:35:15;;;;;;;1.20;0.47;;;7.80;28.80;;;;;;5054562;28;20198;-49
2021/12/03 14:41:59;;;;;;;1.20;0.85;;;7.60;29.30;;;;;;5053175;28;20310;-48
2021/12/03 14:44:41;;;;;;;1.20;0.60;;;7.60;29.10;;;;;;5053588;28;20339;-48
2021/12/03 14:52:49;;;;;;;1.60;0.50;;;7.60;29.30;;;;;;5054307;28;20591;-48
2021/12/03 14:55:30;;;;;;;1.25;0.75;;;7.60;29.20;;;;;;5038950;28;20168;-49
2021/12/03 14:58:12;;;;;;;1.85;0.70;;;7.50;29.60;;;;;;5037333;28;20173;-49
2021/12/03 15:09:08;;;;;;;5.53;1.35;;;7.10;30.30;;;;;;5016165;28;20178;-48
2021/12/03 15:12:27;;;;;;;1.20;0.50;;;7.20;30.30;;;;;;5002067;28;20166;-50
2021/12/03 15:23:02;;;;;;;2.53;1.10;;;6.70;31.40;;;;;;5008668;28;20269;-49
2021/12/03 15:28:28;;;;;;;1.30;0.88;;;6.60;31.40;;;;;;5036102;28;20319;-48
2021/12/03 15:31:00;;;;;;;5.45;2.10;;;6.70;31.40;;;;;;5035759;28;20257;-48
2021/12/03 15:36:21;;;;;;;1.20;0.52;;;6.80;31.40;;;;;;5035829;28;20169;-49
2021/12/03 15:39:07;;;;;;;2.45;1.33;;;6.70;31.80;;;;;;5019097;28;20631;-49
2021/12/03 16:08:36;;;;;;;1.83;1.08;;;6.40;32.00;;;;;;5056890;28;20237;-49
2021/12/03 16:43:40;;;;;;;362.15;201.45;;;6.60;32.00;;;;;;5035223;28;20236;-49
2021/12/03 16:46:59;;;;;;;1.30;0.77;;;6.90;33.30;;;;;;5018846;28;20609;-48
2021/12/03 16:52:15;;;;;;;3.15;2.88;;;7.70;31.60;;;;;;5034438;28;20626;-49
2021/12/03 16:54:46;;;;;;;5.15;3.15;;;8.00;30.50;;;;;;5034409;28;20180;-49
2021/12/03 16:57:16;;;;;;;89.47;56.55;;;8.20;30.40;;;;;;5018962;28;20168;-49
2021/12/03 16:59:45;;;;;;;16.83;9.90;;;8.30;30.60;;;;;;5065638;28;20273;-49
2021/12/03 17:02:24;;;;;;;1.92;1.17;;;8.30;30.00;;;;;;5074905;28;20505;-49
2021/12/03 17:05:08;;;;;;;6.88;4.22;;;8.40;29.50;;;;;;5059679;28;20168;-49
2021/12/03 17:10:57;;;;;;;2.25;1.63;;;8.40;29.70;;;;;;5075635;28;20174;-49
2021/12/03 17:19:29;;;;;;;2.55;2.33;;;8.60;29.40;;;;;;5075429;28;20233;-49
2021/12/03 17:22:21;;;;;;;61.50;40.63;;;8.60;29.90;;;;;;5074532;28;20544;-49
2021/12/03 17:51:46;;;;;;;7.00;3.72;;;8.90;29.50;;;;;;5040121;28;20188;-50
2021/12/03 17:57:24;;;;;;;4.60;1.90;;;8.90;29.60;;;;;;5034952;28;20157;-50
2021/12/03 17:59:50;;;;;;;47.85;34.55;;;8.90;29.40;;;;;;5034346;28;20181;-50
2021/12/03 18:02:57;;;;;;;7.65;6.13;;;8.90;29.70;;;;;;5001393;28;20202;-50
2021/12/03 18:05:28;;;;;;;4.82;2.55;;;8.90;28.70;;;;;;5014349;28;20699;-50
2021/12/03 18:08:07;;;;;;;4.80;2.28;;;8.90;28.90;;;;;;5054716;28;20303;-50
2021/12/03 18:13:56;;;;;;;3.53;1.92;;;8.80;28.60;;;;;;5054610;28;20233;-50
2021/12/03 18:43:59;;;;;;;4.97;2.83;;;7.80;31.60;;;;;;5054315;28;20193;-50
2021/12/03 18:49:32;;;;;;;5.53;2.88;;;7.90;30.30;;;;;;5041742;28;20637;-49
2021/12/03 18:54:42;;;;;;;4.38;2.50;;;7.60;30.20;;;;;;5041960;28;20192;-49
2021/12/03 18:57:18;;;;;;;3.47;2.63;;;7.50;30.40;;;;;;5057994;28;20174;-49
2021/12/03 19:00:03;;;;;;;7.75;3.13;;;7.30;30.40;;;;;;5040255;28;20173;-50
2021/12/03 19:02:32;;;;;;;43.95;33.83;;;7.20;30.40;;;;;;5025818;28;20204;-50
2021/12/03 19:05:08;;;;;;;6.07;3.45;;;7.10;31.00;;;;;;5031657;28;20277;-50
2021/12/03 19:10:25;;;;;;;5.10;3.90;;;6.90;31.10;;;;;;5057914;28;20613;-50
2021/12/03 19:12:58;;;;;;;1.80;1.35;;;6.90;31.40;;;;;;5041041;28;20158;-49
2021/12/03 19:15:27;;;;;;;1.75;1.23;;;6.90;31.40;;;;;;5041535;28;20170;-50
2021/12/03 19:17:57;;;;;;;1.58;0.90;;;6.90;31.20;;;;;;5040537;28;20546;-50
2021/12/03 19:20:28;;;;;;;32.30;28.88;;;6.90;31.40;;;;;;5057660;28;20227;-50
2021/12/03 19:22:55;;;;;;;5.45;5.05;;;6.90;32.60;;;;;;5039487;28;20184;-50
2021/12/03 19:25:23;;;;;;;1.30;1.00;;;7.00;31.60;;;;;;5057582;28;20177;-50
2021/12/03 19:27:51;;;;;;;2.63;1.90;;;7.00;31.30;;;;;;5040272;28;20530;-50
2021/12/03 19:30:18;;;;;;;8.57;6.45;;;7.00;31.20;;;;;;5057313;28;20518;-49
2021/12/03 19:32:45;;;;;;;69.72;50.58;;;6.80;31.80;;;;;;5039319;28;20338;-50
2021/12/03 19:35:13;;;;;;;7.32;5.85;;;6.80;31.80;;;;;;5057369;28;20161;-49
2021/12/03 19:37:42;;;;;;;93.72;66.03;;;6.70;32.00;;;;;;5040201;28;20232;-50
2021/12/03 19:40:11;;;;;;;41.20;24.33;;;6.80;32.40;;;;;;5057225;28;20174;-50
2021/12/03 19:42:50;;;;;;;45.03;25.27;;;6.80;32.20;;;;;;5039591;28;20169;-50
2021/12/03 19:45:20;;;;;;;98.13;49.15;;;6.80;32.40;;;;;;5057141;28;20630;-50
2021/12/03 19:47:58;;;;;;;10.60;9.55;;;6.80;32.40;;;;;;5057297;28;20169;-49
2021/12/03 19:50:39;;;;;;;9.48;7.43;;;6.80;32.10;;;;;;5039506;28;20200;-50
2021/12/03 19:53:18;;;;;;;3.05;2.13;;;6.70;32.60;;;;;;5026707;28;20178;-50
2021/12/03 19:55:46;;;;;;;7.05;6.40;;;6.80;32.50;;;;;;4990347;28;20587;-50
2021/12/03 19:58:15;;;;;;;31.73;25.15;;;6.60;32.90;;;;;;5037143;28;20177;-50